Portada
METAR-TAF:

METAR-TAF

Aeroports :

Rønne, Dinamarca

latitud: 55-04N, longitud: 014-45E, altitud: 16 m

Observació

L'informe es va fer fa 31 minuts, a les 05:20 UTC
Vent 22 kt del Sud
Temperatura 5°C
Humitat 81%
Pressió 1010 hPa
Visibilitat 10 km o més

METAR: EKRN 110520Z AUTO 19022KT 9999 OVC063/// 05/02 Q1010

Hora: 06:51 (05:51 UTC)

Pronòstic

L'informe es va fer fa 37 minuts, a les 05:14 UTC
Pronòstic vàlid del 11 a les 06 UTC al 11 a les 15 UTC
Vent 20 kt del Sud/Sud-Oest
Visibilitat 10 km o més
Cel ennuvolat a una alçada de 2000 ft
Temporalment
l' 11 a les 06 UTC al 11 a les 08 UTC
Vent 25 kt del Sud/Sud-Oest amb ràfegues de 38 kt
Temporalment
l' 11 a les 08 UTC al 11 a les 15 UTC
Vent 20 kt del Sud/Sud-Oest amb ràfegues de 30 kt
Cel ennuvolat a una alçada de 1200 ft
pluja, plugim

TAF: EKRN 110514Z 1106/1115 20020KT 9999 BKN020 TEMPO 1106/1108 20025G38KT TEMPO 1108/1115 20020G30KT -RADZ BKN012

Observacions i pronòstics meteorològics de més de 4000 aeroports (METAR i TAF).

Les estacions disponibles són els punts grocs i vermells al mapa.

Posi el ratolí al punt desitjat per veure el nom de l'estació.

Feu clic per veure les observacions i els pronòstics meteorològics.

Per canviar el mapa: feu clic els botons verds amb una creu de color negre per apropar; al botó verd amb un guió per allunyar la imatge; o en les fletxes verdes per a mapes adjacents.


METAR-TAF: